Time;durP1;ratioP1;P1;durP2;ratioP2;P2;SDS_P1;SDS_P2;PMS_P1;PMS_P2;Temp;Humidity;BMP_temperature;BMP_pressure;BME280_temperature;BME280_humidity;BME280_pressure;Samples;Min_cycle;Max_cycle;Signal;HPM_P1;HPM_P2
2022/10/16 00:00:40;;;;;;;6.28;2.90;;;13.60;99.90;;;;;;6278828;22;20378;-90
2022/10/16 00:03:06;;;;;;;13.35;3.03;;;;;;;;;;6330221;22;19987;-91
2022/10/16 00:05:37;;;;;;;17.33;2.92;;;13.00;99.90;;;;;;6305374;22;19991;-90
2022/10/16 00:08:03;;;;;;;12.82;3.72;;;;;;;;;;6306312;22;19984;-91
2022/10/16 00:10:29;;;;;;;7.13;3.35;;;;;;;;;;6316643;22;19995;-91
2022/10/16 00:12:55;;;;;;;22.33;4.60;;;;;;;;;;6279475;22;20019;-90
2022/10/16 00:15:21;;;;;;;12.18;3.80;;;;;;;;;;6277295;22;20033;-90
2022/10/16 00:17:47;;;;;;;15.80;4.32;;;;;;;;;;6276005;22;20007;-90
2022/10/16 00:20:13;;;;;;;14.88;4.25;;;;;;;;;;6303395;22;19995;-90
2022/10/16 00:22:40;;;;;;;15.38;5.50;;;;;;;;;;6276522;22;20364;-91
2022/10/16 00:25:06;;;;;;;12.50;4.95;;;13.70;99.90;;;;;;6303570;22;20053;-90
2022/10/16 00:27:32;;;;;;;14.18;5.50;;;;;;;;;;6302986;22;20002;-89
2022/10/16 00:29:58;;;;;;;15.35;6.00;;;;;;;;;;6275979;22;20039;-90
2022/10/16 00:32:24;;;;;;;17.23;5.70;;;;;;;;;;6277079;22;20018;-91
2022/10/16 00:34:50;;;;;;;22.05;6.72;;;13.80;99.90;;;;;;6276913;22;20317;-91
2022/10/16 00:37:16;;;;;;;21.92;7.45;;;13.80;99.90;;;;;;6275684;22;20483;-90
2022/10/16 00:39:42;;;;;;;18.17;7.43;;;;;;;;;;6275599;22;20339;-90
2022/10/16 00:42:14;;;;;;;29.52;8.50;;;13.90;99.90;;;;;;6276253;22;20518;-91
2022/10/16 00:44:58;;;;;;;20.85;8.18;;;13.90;99.90;;;;;;6276148;22;19999;-91
2022/10/16 00:47:38;;;;;;;26.20;9.00;;;13.90;99.90;;;;;;6277158;22;20008;-90
2022/10/16 00:50:23;;;;;;;22.40;8.90;;;14.00;99.90;;;;;;6276276;22;20025;-90
2022/10/16 00:52:51;;;;;;;22.83;9.27;;;14.10;99.90;;;;;;6276555;22;20046;-89
2022/10/16 00:55:17;;;;;;;20.57;9.23;;;;;;;;;;6276724;22;20011;-90
2022/10/16 00:57:45;;;;;;;23.98;10.30;;;14.20;99.90;;;;;;6276026;22;20352;-92
2022/10/16 01:00:13;;;;;;;26.75;10.00;;;14.10;99.90;;;;;;6276109;22;20009;-90
2022/10/16 01:02:39;;;;;;;24.25;10.27;;;;;;;;;;6303169;22;20010;-90
2022/10/16 01:05:05;;;;;;;16.80;9.02;;;14.20;99.90;;;;;;6304093;22;20006;-91
2022/10/16 01:07:47;;;;;;;23.35;10.25;;;14.20;99.90;;;;;;6303941;22;20022;-90
2022/10/16 01:10:27;;;;;;;30.73;10.63;;;14.20;99.90;;;;;;6276281;22;20007;-91
2022/10/16 01:13:12;;;;;;;28.55;11.80;;;14.20;99.90;;;;;;6277010;22;20011;-89
2022/10/16 01:15:45;;;;;;;27.58;11.10;;;14.20;99.90;;;;;;6303422;22;20010;-90
2022/10/16 01:18:35;;;;;;;32.70;10.32;;;14.30;99.90;;;;;;6276075;22;20010;-91
2022/10/16 01:21:36;;;;;;;22.73;10.27;;;14.40;99.90;;;;;;6276152;22;19995;-90
2022/10/16 01:24:22;;;;;;;43.47;11.68;;;14.30;99.90;;;;;;6263894;22;20397;-90
2022/10/16 01:27:07;;;;;;;24.60;9.43;;;14.30;99.90;;;;;;6303542;22;20041;-91
2022/10/16 01:29:56;;;;;;;25.13;10.32;;;14.30;99.90;;;;;;6303101;22;20078;-91
2022/10/16 01:32:41;;;;;;;27.90;11.30;;;14.30;99.90;;;;;;6274830;22;20023;-91
2022/10/16 01:35:27;;;;;;;21.20;10.23;;;14.40;99.90;;;;;;6275636;22;20011;-91
2022/10/16 01:38:03;;;;;;;24.90;10.80;;;14.40;99.90;;;;;;6276585;22;20356;-89
2022/10/16 01:40:32;;;;;;;26.13;11.38;;;14.40;99.90;;;;;;6275776;22;20000;-90
2022/10/16 01:43:25;;;;;;;21.73;10.77;;;14.40;99.90;;;;;;6277175;22;20003;-90
2022/10/16 01:45:52;;;;;;;32.25;11.80;;;14.40;99.90;;;;;;6302951;22;20003;-90
2022/10/16 01:48:22;;;;;;;22.80;9.60;;;14.40;99.90;;;;;;6275921;22;20316;-91
2022/10/16 01:51:03;;;;;;;28.55;10.80;;;14.40;99.90;;;;;;6276134;22;20012;-89
2022/10/16 01:53:30;;;;;;;27.02;9.95;;;14.40;99.90;;;;;;6276069;22;20068;-91
2022/10/16 01:55:59;;;;;;;31.58;10.27;;;14.40;99.90;;;;;;6276547;22;20000;-90
2022/10/16 01:58:26;;;;;;;23.92;10.38;;;14.40;99.90;;;;;;6277079;22;20034;-91
2022/10/16 02:00:55;;;;;;;26.38;10.20;;;14.40;99.90;;;;;;6277383;22;20052;-91
2022/10/16 02:03:21;;;;;;;25.08;9.77;;;14.50;99.90;;;;;;6277849;22;20007;-90
2022/10/16 02:05:52;;;;;;;39.80;11.02;;;14.40;99.90;;;;;;6277913;22;20089;-90
2022/10/16 02:08:19;;;;;;;18.60;9.20;;;;;;;;;;6277986;22;20451;-91
2022/10/16 02:10:45;;;;;;;24.23;8.95;;;;;;;;;;6277564;22;20004;-91
2022/10/16 02:13:34;;;;;;;29.05;10.57;;;14.20;99.90;;;;;;6277325;22;20033;-91
2022/10/16 02:16:00;;;;;;;24.08;9.40;;;14.20;99.90;;;;;;6304229;22;20011;-89
2022/10/16 02:18:29;;;;;;;27.17;9.18;;;14.20;99.90;;;;;;6277962;22;20007;-91
2022/10/16 02:21:21;;;;;;;22.27;8.52;;;14.10;99.90;;;;;;6303304;22;20382;-91
2022/10/16 02:24:02;;;;;;;28.40;8.80;;;14.20;99.90;;;;;;6277615;22;20003;-90
2022/10/16 02:26:40;;;;;;;19.08;8.20;;;14.10;99.90;;;;;;6278701;22;20000;-91
2022/10/16 02:29:11;;;;;;;26.95;8.60;;;14.10;99.90;;;;;;6277607;22;20003;-91
2022/10/16 02:31:41;;;;;;;19.13;8.25;;;14.10;99.90;;;;;;6277967;22;20074;-89
2022/10/16 02:34:08;;;;;;;33.92;8.93;;;14.00;99.90;;;;;;6278876;22;20007;-90
2022/10/16 02:36:39;;;;;;;17.40;7.15;;;14.00;99.90;;;;;;6305647;22;20420;-90
2022/10/16 02:39:06;;;;;;;32.55;9.13;;;;;;;;;;6277945;22;20029;-92
2022/10/16 02:41:32;;;;;;;23.55;9.48;;;14.00;99.90;;;;;;6287016;22;19983;-91
2022/10/16 02:43:58;;;;;;;30.00;9.15;;;;;;;;;;6334371;22;19990;-92
2022/10/16 02:46:24;;;;;;;38.00;9.70;;;;;;;;;;6305023;22;20056;-90
2022/10/16 02:48:50;;;;;;;19.80;8.32;;;14.10;99.90;;;;;;6326490;22;20003;-91
2022/10/16 02:51:16;;;;;;;18.70;8.07;;;14.10;99.90;;;;;;6285517;22;20067;-91
2022/10/16 02:53:42;;;;;;;26.50;8.57;;;;;;;;;;6306116;22;20061;-91
2022/10/16 02:56:08;;;;;;;28.38;9.00;;;;;;;;;;6305122;22;20038;-91
2022/10/16 02:58:34;;;;;;;29.35;8.38;;;14.10;99.90;;;;;;6277525;22;20007;-91
2022/10/16 03:00:59;;;;;;;23.70;8.40;;;14.10;99.90;;;;;;6304075;22;20007;-90
2022/10/16 03:03:25;;;;;;;17.63;7.63;;;14.00;99.90;;;;;;6277509;22;19999;-92
2022/10/16 03:05:51;;;;;;;22.17;7.97;;;14.00;99.90;;;;;;6303289;22;20010;-91
2022/10/16 03:08:17;;;;;;;29.00;9.27;;;;;;;;;;6303225;22;20082;-90
2022/10/16 03:10:43;;;;;;;23.55;8.05;;;;;;;;;;6277592;22;20027;-90
2022/10/16 03:13:09;;;;;;;20.65;8.05;;;14.00;99.90;;;;;;6277062;22;20364;-91
2022/10/16 03:15:34;;;;;;;33.42;10.38;;;14.00;99.90;;;;;;6277711;22;20027;-91
2022/10/16 03:18:00;;;;;;;29.02;10.05;;;14.00;99.90;;;;;;6277948;22;20007;-92
2022/10/16 03:20:26;;;;;;;27.70;8.80;;;;;;;;;;6278000;22;20007;-92
2022/10/16 03:22:53;;;;;;;23.02;8.00;;;;;;;;;;6277405;22;20396;-91
2022/10/16 03:25:19;;;;;;;25.80;8.32;;;;;;;;;;6304947;22;20420;-91
2022/10/16 03:27:45;;;;;;;19.42;9.18;;;;;;;;;;6277719;22;20003;-91
2022/10/16 03:30:11;;;;;;;24.52;9.45;;;14.10;99.90;;;;;;6277399;22;19999;-91
2022/10/16 03:32:37;;;;;;;46.97;11.15;;;;;;;;;;6304153;22;20021;-90
2022/10/16 03:35:03;;;;;;;31.38;10.00;;;;;;;;;;6278135;22;20006;-91
2022/10/16 03:37:29;;;;;;;33.92;10.23;;;;;;;;;;6304832;22;20439;-89
2022/10/16 03:39:55;;;;;;;37.55;10.63;;;;;;;;;;6276762;22;20206;-90
2022/10/16 03:42:21;;;;;;;43.90;11.90;;;;;;;;;;6304373;22;20100;-90
2022/10/16 03:44:47;;;;;;;32.20;10.82;;;14.10;99.90;;;;;;6276410;22;20495;-89
2022/10/16 03:47:12;;;;;;;33.75;10.70;;;14.20;99.90;;;;;;6275936;22;20027;-89
2022/10/16 03:49:38;;;;;;;28.23;10.05;;;14.20;99.90;;;;;;6276686;22;20343;-90
2022/10/16 03:52:04;;;;;;;26.90;9.93;;;;;;;;;;6277405;22;20019;-89
2022/10/16 03:54:30;;;;;;;37.58;11.25;;;;;;;;;;6303284;22;20023;-90
2022/10/16 03:56:56;;;;;;;37.10;12.15;;;14.30;99.90;;;;;;6276369;22;20007;-90
2022/10/16 03:59:21;;;;;;;27.48;10.60;;;14.30;99.90;;;;;;6303800;22;20074;-90
2022/10/16 04:01:47;;;;;;;38.67;11.75;;;;;;;;;;6303813;22;20343;-90
2022/10/16 04:04:13;;;;;;;36.83;10.45;;;14.30;99.90;;;;;;6276573;22;19999;-90
2022/10/16 04:06:39;;;;;;;29.45;11.20;;;14.30;99.90;;;;;;6303750;22;20053;-91
2022/10/16 04:09:04;;;;;;;29.65;10.38;;;14.30;99.90;;;;;;6277135;22;20003;-90
2022/10/16 04:11:30;;;;;;;46.13;11.77;;;14.40;99.90;;;;;;6303121;22;20441;-90
2022/10/16 04:13:56;;;;;;;26.75;9.95;;;14.40;99.90;;;;;;6276217;22;20369;-91
2022/10/16 04:16:22;;;;;;;32.17;10.95;;;14.40;99.90;;;;;;6303303;22;20035;-89
2022/10/16 04:18:48;;;;;;;27.77;10.82;;;;;;;;;;6303648;22;20033;-89
2022/10/16 04:21:14;;;;;;;23.15;10.75;;;;;;;;;;6303767;22;19995;-90
2022/10/16 04:23:40;;;;;;;27.75;10.43;;;;;;;;;;6303042;22;20049;-89
2022/10/16 04:26:06;;;;;;;31.55;9.55;;;;;;;;;;6277286;22;20081;-91
2022/10/16 04:28:32;;;;;;;42.13;11.57;;;;;;;;;;6276278;22;20075;-89
2022/10/16 04:30:58;;;;;;;34.40;11.38;;;;;;;;;;6304025;22;20345;-90
2022/10/16 04:33:24;;;;;;;41.05;10.18;;;;;;;;;;6276641;22;20073;-89
2022/10/16 04:35:57;;;;;;;29.45;10.77;;;14.50;99.90;;;;;;6302561;22;20104;-89
2022/10/16 04:38:23;;;;;;;35.92;10.82;;;;;;;;;;6276089;22;20513;-90
2022/10/16 04:40:49;;;;;;;36.45;11.15;;;;;;;;;;6303558;22;20050;-91
2022/10/16 04:43:14;;;;;;;39.42;10.75;;;14.40;99.90;;;;;;6276687;22;20343;-90
2022/10/16 04:45:40;;;;;;;33.92;11.48;;;14.50;99.90;;;;;;6277225;22;20003;-90
2022/10/16 04:48:06;;;;;;;34.40;11.25;;;;;;;;;;6276968;22;20462;-90
2022/10/16 04:50:32;;;;;;;39.63;11.95;;;;;;;;;;6303414;22;20003;-90
2022/10/16 04:52:59;;;;;;;36.95;11.32;;;;;;;;;;6276693;22;20035;-91
2022/10/16 04:55:25;;;;;;;39.67;10.93;;;14.40;99.90;;;;;;6277050;22;20027;-93
2022/10/16 04:57:51;;;;;;;42.95;13.60;;;;;;;;;;6276306;22;20338;-90
2022/10/16 05:00:17;;;;;;;39.55;11.93;;;14.40;99.90;;;;;;6277017;22;20420;-92
2022/10/16 05:02:43;;;;;;;38.28;12.15;;;;;;;;;;6276523;22;20003;-90
2022/10/16 05:05:10;;;;;;;51.05;12.05;;;;;;;;;;6277391;22;20387;-90
2022/10/16 05:07:36;;;;;;;45.33;10.77;;;;;;;;;;6277681;22;20053;-90
2022/10/16 05:10:02;;;;;;;48.75;12.30;;;;;;;;;;6276514;22;19999;-91
2022/10/16 05:12:28;;;;;;;42.67;13.38;;;;;;;;;;6275895;22;20014;-90
2022/10/16 05:14:58;;;;;;;28.50;10.63;;;14.50;99.90;;;;;;6303890;22;20452;-91
2022/10/16 05:17:25;;;;;;;32.55;10.75;;;14.50;99.90;;;;;;6276431;22;20003;-90
2022/10/16 05:19:51;;;;;;;33.00;11.68;;;;;;;;;;6276235;22;20011;-89
2022/10/16 05:22:17;;;;;;;30.80;11.30;;;13.10;99.90;;;;;;6291513;22;20011;-89
2022/10/16 05:24:43;;;;;;;35.35;11.95;;;;;;;;;;6302347;22;19987;-90
2022/10/16 05:27:09;;;;;;;35.80;12.30;;;;;;;;;;6304472;22;19995;-90
2022/10/16 05:29:35;;;;;;;49.25;13.13;;;;;;;;;;6320794;22;19999;-90
2022/10/16 05:32:22;;;;;;;34.55;12.07;;;14.70;99.90;;;;;;6286606;22;20202;-90
2022/10/16 05:34:48;;;;;;;40.55;13.35;;;;;;;;;;6278166;22;20035;-92
2022/10/16 05:37:13;;;;;;;35.15;12.65;;;14.70;99.90;;;;;;6278785;22;20010;-90
2022/10/16 05:39:39;;;;;;;39.83;12.63;;;14.60;99.90;;;;;;6280528;22;20003;-92
2022/10/16 05:42:05;;;;;;;32.97;12.48;;;14.80;99.90;;;;;;6277549;22;20131;-91
2022/10/16 05:44:31;;;;;;;33.40;11.80;;;;;;;;;;6278406;22;20004;-92
2022/10/16 05:46:57;;;;;;;38.10;11.63;;;;;;;;;;6305625;22;20003;-88
2022/10/16 05:49:31;;;;;;;30.10;12.10;;;14.80;99.90;;;;;;6278835;22;20010;-92
2022/10/16 05:51:57;;;;;;;35.17;12.98;;;;;;;;;;6279631;22;20072;-92
2022/10/16 05:54:23;;;;;;;37.15;12.00;;;;;;;;;;6279219;22;20010;-91
2022/10/16 05:56:49;;;;;;;45.72;13.45;;;;;;;;;;6279010;22;19999;-91
2022/10/16 05:59:15;;;;;;;38.78;13.30;;;14.80;99.90;;;;;;6279015;22;20014;-91
2022/10/16 06:01:40;;;;;;;40.65;12.65;;;14.90;99.90;;;;;;6280575;22;20000;-88
2022/10/16 06:04:06;;;;;;;40.20;14.15;;;14.90;99.90;;;;;;6305023;22;20010;-89
2022/10/16 06:06:32;;;;;;;37.15;12.75;;;14.80;99.90;;;;;;6276865;22;20268;-90
2022/10/16 06:08:59;;;;;;;60.72;13.60;;;14.90;99.90;;;;;;6301260;22;20454;-90
2022/10/16 06:11:28;;;;;;;38.08;12.63;;;14.90;99.90;;;;;;6303874;22;20055;-89
2022/10/16 06:13:56;;;;;;;42.58;13.23;;;14.90;99.90;;;;;;6303104;22;20011;-90
2022/10/16 06:16:23;;;;;;;46.15;13.52;;;14.80;99.90;;;;;;6302256;22;20039;-89
2022/10/16 06:18:55;;;;;;;95.38;14.13;;;14.80;99.90;;;;;;6304342;22;20026;-91
2022/10/16 06:21:26;;;;;;;68.30;14.23;;;14.80;99.90;;;;;;6304899;22;20335;-89
2022/10/16 06:23:53;;;;;;;38.33;13.13;;;14.80;99.90;;;;;;6276442;22;20053;-94
2022/10/16 06:26:24;;;;;;;39.25;14.45;;;14.80;99.90;;;;;;6305163;22;20007;-90
2022/10/16 06:28:52;;;;;;;35.08;13.43;;;14.80;99.90;;;;;;6319143;22;19995;-85
2022/10/16 06:31:19;;;;;;;114.78;14.57;;;14.80;99.90;;;;;;6297473;22;20056;-85
2022/10/16 06:33:48;;;;;;;30.60;13.85;;;14.80;99.90;;;;;;6325745;22;20013;-85
2022/10/16 06:36:17;;;;;;;29.45;14.45;;;14.80;99.90;;;;;;6292592;22;20003;-85
2022/10/16 06:38:43;;;;;;;42.70;13.73;;;;;;;;;;6310799;22;20424;-85
2022/10/16 06:41:12;;;;;;;30.17;13.63;;;14.90;99.90;;;;;;6288315;22;20010;-88
2022/10/16 06:43:40;;;;;;;29.85;13.65;;;;;;;;;;6311838;22;20029;-92
2022/10/16 06:46:09;;;;;;;42.33;14.68;;;14.90;99.90;;;;;;6280477;22;20023;-93
2022/10/16 06:48:36;;;;;;;45.65;13.50;;;;;;;;;;6278348;22;20011;-93
2022/10/16 06:51:11;;;;;;;47.22;15.10;;;14.90;99.90;;;;;;6284117;22;20000;-88
2022/10/16 06:53:50;;;;;;;66.95;15.00;;;14.90;99.90;;;;;;6283052;22;20360;-92
2022/10/16 06:56:22;;;;;;;41.67;15.02;;;14.90;99.90;;;;;;6287397;22;20091;-92
2022/10/16 06:58:48;;;;;;;131.07;17.05;;;;;;;;;;6283828;22;20011;-90
2022/10/16 07:01:15;;;;;;;138.38;17.90;;;14.90;99.90;;;;;;6307276;22;19995;-89
2022/10/16 07:03:48;;;;;;;60.92;15.27;;;14.80;99.90;;;;;;6278367;22;20100;-92
2022/10/16 07:06:16;;;;;;;136.27;17.77;;;14.90;99.90;;;;;;6278117;22;19999;-88
2022/10/16 07:08:44;;;;;;;43.30;15.45;;;14.90;99.90;;;;;;6303439;22;20013;-90
2022/10/16 07:11:13;;;;;;;86.63;16.13;;;14.90;99.90;;;;;;6303867;22;19999;-89
2022/10/16 07:13:41;;;;;;;62.92;16.10;;;15.00;99.90;;;;;;6303631;22;20011;-89
2022/10/16 07:16:18;;;;;;;88.88;16.63;;;14.90;99.90;;;;;;6276876;22;20007;-88
2022/10/16 07:18:46;;;;;;;102.88;16.08;;;15.00;99.90;;;;;;6277667;22;20455;-88
2022/10/16 07:21:16;;;;;;;98.67;15.10;;;14.90;99.90;;;;;;6304773;22;20048;-90
2022/10/16 07:23:42;;;;;;;60.22;15.10;;;;;;;;;;6277754;22;19995;-89
2022/10/16 07:26:08;;;;;;;34.85;13.77;;;;;;;;;;6276679;22;20094;-89
2022/10/16 07:28:34;;;;;;;38.10;14.27;;;;;;;;;;6303974;22;20003;-89
2022/10/16 07:31:05;;;;;;;57.40;14.15;;;15.10;99.90;;;;;;6276473;22;20006;-89
2022/10/16 07:33:32;;;;;;;49.20;14.13;;;15.10;99.90;;;;;;6304133;22;20011;-91
2022/10/16 07:35:58;;;;;;;43.55;13.85;;;15.10;99.90;;;;;;6302682;22;20436;-89
2022/10/16 07:38:24;;;;;;;35.58;13.20;;;;;;;;;;6303887;22;20078;-89
2022/10/16 07:41:00;;;;;;;34.72;11.82;;;15.10;99.90;;;;;;6304219;22;20000;-88
2022/10/16 07:43:26;;;;;;;24.80;11.73;;;15.20;99.90;;;;;;6276246;22;20003;-89
2022/10/16 07:45:53;;;;;;;31.48;11.13;;;;;;;;;;6275422;22;19999;-89
2022/10/16 07:48:19;;;;;;;27.30;10.52;;;15.20;99.90;;;;;;6303480;22;20003;-89
2022/10/16 07:50:45;;;;;;;29.52;8.90;;;15.20;99.90;;;;;;6303879;22;20022;-88
2022/10/16 07:53:12;;;;;;;22.55;8.65;;;15.20;99.90;;;;;;6302056;22;20351;-89
2022/10/16 07:55:38;;;;;;;14.75;7.20;;;;;;;;;;6276407;22;20254;-89
2022/10/16 07:58:04;;;;;;;23.88;7.65;;;15.40;99.90;;;;;;6303109;22;20052;-90
2022/10/16 08:00:31;;;;;;;20.55;5.80;;;;;;;;;;6303129;22;19999;-88
2022/10/16 08:03:00;;;;;;;11.05;5.38;;;15.30;99.90;;;;;;6325650;22;20011;-89
2022/10/16 08:05:27;;;;;;;16.48;4.72;;;15.20;99.90;;;;;;6303721;22;20015;-88
2022/10/16 08:07:53;;;;;;;17.25;4.70;;;;;;;;;;6332737;22;20007;-88
2022/10/16 08:10:20;;;;;;;18.65;4.35;;;15.20;99.90;;;;;;6293029;22;19999;-89
2022/10/16 08:12:46;;;;;;;9.60;3.80;;;15.30;99.90;;;;;;6281752;22;20011;-88
2022/10/16 08:15:11;;;;;;;15.60;4.18;;;15.40;99.90;;;;;;6277553;22;20069;-89
2022/10/16 08:17:37;;;;;;;17.50;5.57;;;15.50;99.90;;;;;;6276233;22;20011;-89
2022/10/16 08:20:04;;;;;;;11.90;3.60;;;15.60;99.90;;;;;;6303054;22;19995;-88
2022/10/16 08:22:31;;;;;;;15.20;4.18;;;;;;;;;;6302243;22;20033;-89
2022/10/16 08:24:57;;;;;;;9.40;4.07;;;;;;;;;;6303218;22;20169;-88
2022/10/16 08:27:22;;;;;;;13.90;4.00;;;15.90;99.90;;;;;;6275993;22;19999;-89
2022/10/16 08:29:51;;;;;;;16.00;4.57;;;15.90;99.90;;;;;;6304109;22;19999;-88
2022/10/16 08:32:17;;;;;;;17.40;4.80;;;15.90;99.90;;;;;;6276908;22;20008;-88
2022/10/16 08:34:43;;;;;;;18.02;5.55;;;;;;;;;;6301949;22;20091;-88
2022/10/16 08:37:11;;;;;;;15.13;5.47;;;;;;;;;;6276207;22;20000;-90
2022/10/16 08:39:37;;;;;;;18.83;6.32;;;;;;;;;;6303354;22;20030;-91
2022/10/16 08:42:03;;;;;;;18.45;6.00;;;;;;;;;;6276335;22;20085;-89
2022/10/16 08:45:06;;;;;;;12.70;5.20;;;15.90;99.90;;;;;;6276129;22;20029;-90
2022/10/16 08:47:51;;;;;;;10.48;4.40;;;16.00;99.90;;;;;;6303255;22;20002;-88
2022/10/16 08:50:29;;;;;;;8.52;3.92;;;16.10;99.90;;;;;;6304485;22;20019;-90
2022/10/16 08:52:55;;;;;;;12.68;4.00;;;16.10;99.90;;;;;;6275469;22;20015;-88
2022/10/16 08:55:50;;;;;;;18.05;3.53;;;16.00;99.90;;;;;;6303726;22;19995;-90
2022/10/16 08:58:22;;;;;;;10.60;3.45;;;16.10;99.90;;;;;;6276297;22;20352;-90
2022/10/16 09:00:53;;;;;;;9.70;3.05;;;16.10;99.90;;;;;;6304657;22;20003;-89
2022/10/16 09:03:19;;;;;;;11.93;2.80;;;;;;;;;;6304126;22;20010;-89
2022/10/16 09:06:00;;;;;;;8.95;2.67;;;16.10;99.90;;;;;;6302437;22;19995;-89
2022/10/16 09:08:46;;;;;;;12.13;3.20;;;16.10;99.90;;;;;;6301611;22;20053;-90
2022/10/16 09:11:18;;;;;;;15.05;3.22;;;16.20;99.90;;;;;;6278536;22;20208;-88
2022/10/16 09:14:12;;;;;;;9.90;2.80;;;16.20;99.90;;;;;;6305137;22;20011;-89
2022/10/16 09:16:44;;;;;;;8.20;2.95;;;16.30;99.90;;;;;;6305453;22;20004;-91
2022/10/16 09:19:37;;;;;;;9.65;2.92;;;16.30;99.90;;;;;;6305405;22;20006;-92
2022/10/16 09:22:13;;;;;;;16.30;3.00;;;16.40;99.90;;;;;;6277545;22;20057;-90
2022/10/16 09:24:39;;;;;;;12.15;3.08;;;;;;;;;;6305003;22;20006;-91
2022/10/16 09:27:08;;;;;;;9.23;2.90;;;16.20;99.90;;;;;;6277357;22;20003;-89
2022/10/16 09:29:33;;;;;;;15.38;3.08;;;16.30;99.90;;;;;;6277511;22;20004;-90
2022/10/16 09:32:13;;;;;;;12.02;2.72;;;16.30;99.90;;;;;;6277691;22;20010;-89
2022/10/16 09:34:45;;;;;;;15.00;2.50;;;16.20;99.90;;;;;;6277837;22;20010;-90
2022/10/16 09:37:17;;;;;;;6.75;2.10;;;16.20;99.90;;;;;;6277709;22;20026;-89
2022/10/16 09:39:54;;;;;;;9.43;2.00;;;16.30;99.90;;;;;;6305446;22;20007;-91
2022/10/16 09:42:36;;;;;;;8.85;2.10;;;16.20;99.90;;;;;;6306749;22;19999;-89
2022/10/16 09:45:04;;;;;;;11.80;2.00;;;16.20;99.90;;;;;;6277749;22;20015;-90
2022/10/16 09:47:31;;;;;;;7.43;1.50;;;16.30;99.90;;;;;;6277686;22;20006;-91
2022/10/16 09:50:01;;;;;;;8.77;2.03;;;16.30;99.90;;;;;;6305234;22;20117;-89
2022/10/16 09:52:29;;;;;;;4.35;1.40;;;16.30;99.90;;;;;;6277733;22;20102;-89
2022/10/16 09:55:00;;;;;;;8.80;1.55;;;16.30;99.90;;;;;;6278134;22;20059;-89
2022/10/16 09:57:27;;;;;;;11.38;2.10;;;16.30;99.90;;;;;;6277571;22;20451;-92
2022/10/16 09:59:55;;;;;;;11.90;1.90;;;16.30;99.90;;;;;;6278177;22;20006;-92
2022/10/16 10:02:30;;;;;;;15.75;2.03;;;17.70;99.90;;;;;;6306649;22;20059;-92
2022/10/16 10:04:57;;;;;;;6.65;1.80;;;;;;;;;;6305629;22;20031;-90
2022/10/16 10:07:45;;;;;;;10.32;1.88;;;16.60;99.90;;;;;;6279077;22;19999;-93
2022/10/16 10:10:40;;;;;;;10.48;1.80;;;16.70;99.90;;;;;;6303918;22;20003;-90
2022/10/16 10:13:21;;;;;;;14.43;1.90;;;16.80;99.90;;;;;;6276122;22;20347;-89
2022/10/16 10:15:56;;;;;;;6.82;2.03;;;16.70;99.90;;;;;;6277293;22;20011;-90
2022/10/16 10:18:23;;;;;;;5.70;1.50;;;16.80;99.90;;;;;;6306182;22;20059;-91
2022/10/16 10:21:00;;;;;;;10.38;1.88;;;16.90;99.90;;;;;;6305772;22;19999;-94
2022/10/16 10:23:29;;;;;;;15.30;2.30;;;16.70;99.90;;;;;;6279200;22;20090;-90
2022/10/16 10:26:05;;;;;;;7.10;1.70;;;16.70;99.90;;;;;;6307523;22;20063;-90
2022/10/16 10:28:47;;;;;;;12.30;1.85;;;16.70;99.90;;;;;;6304972;22;20003;-90
2022/10/16 10:31:20;;;;;;;6.57;1.50;;;15.70;99.90;;;;;;6278887;22;20092;-90
2022/10/16 10:34:23;;;;;;;10.10;1.60;;;16.60;99.90;;;;;;6279149;22;20019;-90
2022/10/16 10:37:21;;;;;;;5.65;1.70;;;16.60;99.90;;;;;;6280332;22;20007;-91
2022/10/16 10:40:14;;;;;;;5.07;1.55;;;16.00;99.90;;;;;;6283446;22;20057;-91
2022/10/16 10:42:58;;;;;;;9.73;1.50;;;16.40;99.90;;;;;;6326601;22;20010;-93
2022/10/16 10:45:28;;;;;;;9.40;1.42;;;16.30;99.90;;;;;;6332063;22;20051;-90
2022/10/16 10:47:54;;;;;;;14.13;1.50;;;;;;;;;;6324299;22;20003;-90
2022/10/16 10:50:41;;;;;;;9.85;1.73;;;16.20;99.90;;;;;;6311271;22;20456;-91
2022/10/16 10:53:29;;;;;;;8.38;1.40;;;16.10;99.90;;;;;;6303199;22;20011;-90
2022/10/16 10:56:13;;;;;;;11.00;1.50;;;16.10;99.90;;;;;;6303897;22;20060;-89
2022/10/16 10:58:55;;;;;;;9.85;1.95;;;16.10;99.90;;;;;;6304510;22;20002;-90
2022/10/16 11:01:39;;;;;;;7.28;1.48;;;16.00;99.90;;;;;;6304388;22;19999;-89
2022/10/16 11:04:10;;;;;;;8.23;1.35;;;16.00;99.90;;;;;;6304333;22;20084;-89
2022/10/16 11:07:20;;;;;;;4.35;1.50;;;15.90;99.90;;;;;;6302545;22;20003;-89
2022/10/16 11:09:52;;;;;;;5.50;1.55;;;15.80;99.90;;;;;;6246614;22;20010;-89
2022/10/16 11:12:34;;;;;;;8.32;1.70;;;15.80;99.90;;;;;;6304190;22;20014;-89
2022/10/16 11:15:30;;;;;;;10.35;1.95;;;15.70;99.90;;;;;;6275971;22;20090;-89
2022/10/16 11:18:17;;;;;;;8.40;1.85;;;15.50;99.90;;;;;;6277542;22;20006;-89
2022/10/16 11:20:52;;;;;;;8.93;1.90;;;15.50;99.90;;;;;;6303915;22;20027;-90
2022/10/16 11:23:30;;;;;;;10.32;1.98;;;15.70;99.90;;;;;;6304007;22;19999;-91
2022/10/16 11:26:06;;;;;;;8.32;2.15;;;15.80;99.90;;;;;;6277663;22;20031;-90
2022/10/16 11:28:39;;;;;;;10.00;2.25;;;15.80;99.90;;;;;;6276654;22;20463;-89
2022/10/16 11:31:26;;;;;;;9.13;2.53;;;15.80;99.90;;;;;;6303930;22;19999;-89
2022/10/16 11:34:11;;;;;;;16.10;3.40;;;15.90;99.90;;;;;;6276851;22;20014;-90
2022/10/16 11:37:10;;;;;;;12.85;2.22;;;15.90;99.90;;;;;;6276882;22;20078;-89
2022/10/16 11:39:38;;;;;;;8.93;3.10;;;15.90;99.90;;;;;;6277217;22;20007;-89
2022/10/16 11:42:25;;;;;;;11.68;3.00;;;15.80;99.90;;;;;;6303805;22;19995;-90
2022/10/16 11:45:12;;;;;;;8.13;2.57;;;15.50;99.90;;;;;;6276454;22;20452;-90
2022/10/16 11:47:42;;;;;;;11.83;3.37;;;15.70;99.90;;;;;;6275758;22;20019;-89
2022/10/16 11:50:16;;;;;;;7.88;3.22;;;15.70;99.90;;;;;;6302151;22;20234;-90
2022/10/16 11:53:06;;;;;;;16.30;4.95;;;15.80;99.90;;;;;;6302268;22;20513;-89
2022/10/16 11:55:37;;;;;;;12.40;3.40;;;15.80;99.90;;;;;;6276476;22;20052;-89
2022/10/16 11:58:32;;;;;;;14.10;3.33;;;15.90;99.90;;;;;;6303851;22;20000;-89
2022/10/16 12:01:10;;;;;;;11.95;3.15;;;15.90;99.90;;;;;;6276965;22;20082;-89
2022/10/16 12:03:38;;;;;;;10.98;3.10;;;16.00;99.90;;;;;;6301992;22;20347;-89
2022/10/16 12:06:27;;;;;;;6.32;2.50;;;16.00;99.90;;;;;;6302176;22;20007;-89
2022/10/16 12:08:54;;;;;;;8.05;3.03;;;16.10;99.90;;;;;;6275658;22;20434;-89
2022/10/16 12:11:33;;;;;;;6.22;3.55;;;16.10;99.90;;;;;;6276211;22;20490;-89
2022/10/16 12:14:11;;;;;;;9.00;3.03;;;16.00;99.90;;;;;;6304648;22;20015;-89
2022/10/16 12:16:50;;;;;;;12.05;3.63;;;16.00;99.90;;;;;;6302404;22;20011;-89
2022/10/16 12:19:17;;;;;;;7.55;2.90;;;16.00;99.90;;;;;;6303661;22;20002;-89
2022/10/16 12:21:44;;;;;;;7.00;3.30;;;16.20;99.90;;;;;;6303471;22;20004;-90
2022/10/16 12:24:32;;;;;;;9.45;3.25;;;16.10;99.90;;;;;;6303584;22;20390;-88
2022/10/16 12:26:58;;;;;;;7.85;3.40;;;;;;;;;;6303111;22;20007;-89
2022/10/16 12:29:44;;;;;;;11.30;3.38;;;16.20;99.90;;;;;;6303411;22;20026;-91
2022/10/16 12:32:30;;;;;;;8.32;3.53;;;16.20;99.90;;;;;;6303328;22;20003;-90
2022/10/16 12:34:56;;;;;;;12.27;3.95;;;;;;;;;;6276639;22;19999;-89
2022/10/16 12:37:29;;;;;;;8.77;3.80;;;16.40;99.90;;;;;;6303550;22;20003;-89
2022/10/16 12:39:56;;;;;;;8.95;3.75;;;16.60;99.90;;;;;;6276612;22;20014;-91
2022/10/16 12:42:28;;;;;;;7.32;4.00;;;16.50;99.90;;;;;;6276768;22;20007;-90
2022/10/16 12:44:54;;;;;;;8.60;4.53;;;16.60;99.90;;;;;;6302920;22;20466;-90
2022/10/16 12:47:32;;;;;;;11.50;4.00;;;16.60;99.90;;;;;;6304489;22;20055;-89
2022/10/16 12:49:58;;;;;;;12.30;4.55;;;;;;;;;;6303751;22;20010;-90
2022/10/16 12:52:44;;;;;;;10.40;4.72;;;16.80;99.90;;;;;;6304704;22;20015;-89
2022/10/16 12:55:18;;;;;;;8.35;4.72;;;17.00;99.90;;;;;;6305708;22;20007;-88
2022/10/16 12:58:02;;;;;;;17.00;5.03;;;17.10;99.90;;;;;;6306923;22;20432;-90
2022/10/16 13:00:40;;;;;;;15.27;5.15;;;17.10;99.90;;;;;;6306631;22;19999;-90
2022/10/16 13:03:30;;;;;;;11.67;4.63;;;17.20;99.90;;;;;;6304092;22;20439;-89
2022/10/16 13:06:30;;;;;;;10.93;4.22;;;17.20;99.90;;;;;;6305351;22;19999;-89
2022/10/16 13:08:56;;;;;;;9.70;4.38;;;;;;;;;;6306074;22;20019;-88
2022/10/16 13:11:48;;;;;;;5.05;3.70;;;17.30;99.90;;;;;;6308256;22;20027;-90
2022/10/16 13:14:36;;;;;;;12.07;4.57;;;17.30;99.90;;;;;;6308588;22;20007;-89
2022/10/16 13:17:30;;;;;;;9.23;4.43;;;17.30;99.90;;;;;;6310478;22;20043;-91
2022/10/16 13:20:18;;;;;;;9.25;4.82;;;17.30;99.90;;;;;;6329876;22;20007;-88
2022/10/16 13:22:56;;;;;;;8.93;4.10;;;17.50;99.90;;;;;;6328145;22;19983;-90
2022/10/16 13:25:22;;;;;;;9.35;4.72;;;;;;;;;;6320042;22;20003;-89
2022/10/16 13:28:07;;;;;;;13.27;4.93;;;17.50;99.90;;;;;;6282531;22;20009;-89